Airfield :







YOU CAN JOIN US ON...

 
LOGIN :

Register | Disclaimer

   EN    FR    IT 

 









Legend :    VFR   Marginal VFR   IFR   Intensive IFR   Very Intensive IFR
Visi :
Ceiling :
>= 8 km
>= 3000ft
5 to 8 km
1000 to 3000 ft
1500m to 5 km
500 to 1000 ft
800 to 1500m
200 to 500 ft
< 800m
< 200 ft
Symbols :   Thunderstorms  Fog  Heavy snow  Heavy precipitations  Wind > 20 kt







- Airport Elevation : 266 ft
- IATA code : MHT


KMHT - Manchester

CURRENT METAR :
  • 192253Z 29008KT 10SM FEW250 M04/M18 A3047 RMK AO2 SLP339 T10391183

EXPIRED METARs :
  • 192153Z 30011KT 10SM FEW250 M03/M19 A3045 RMK AO2 SLP331 T10281194
  • 192053Z 33014G18KT 10SM FEW250 M02/M18 A3044 RMK AO2 SLP328 T10221178 55002

TAF KMHT
Valid from the 19 at 18:00 until the 20 at 18:00 UTC


191723Z 1918/2018 31012G18KT P6SM SKC
FM200000 31006KT P6SM FEW250
KZBW FIR / North America



MET'MAP, your aeronautical weather chart ! - Copyright ORBIFLY December 2007 - Disclaimer

ORBIFLY MET'MAP TEAM :

Programming & Development : Alexandra Zaïnal
Concept & Development : Baudouin d'Aumeries
Co-Development & Prog : Marc-Olivier Méhu
Technical & hardware support : Manuel Goepfert

Contact : metmap@orbifly.com




SOURCES & CREDITS :

   NOAA